createdAt,value
2022-09-15T00:00:38.528Z,99152.63
2022-09-15T00:01:40.222Z,99150.16
2022-09-15T00:02:42.075Z,99155.81
2022-09-15T00:03:43.587Z,99157.47
2022-09-15T00:04:45.139Z,99149.41
2022-09-15T00:05:46.701Z,99153.56
2022-09-15T00:06:48.296Z,99152.00
2022-09-15T00:07:49.727Z,99147.06
2022-09-15T00:08:51.217Z,99154.38
2022-09-15T00:09:52.673Z,99146.31
2022-09-15T00:10:58.503Z,99148.44
2022-09-15T00:11:59.962Z,99139.19
2022-09-15T00:13:01.441Z,99144.16
2022-09-15T00:14:03.404Z,99138.47
2022-09-15T00:15:05.661Z,99140.13
2022-09-15T00:16:07.397Z,99147.44
2022-09-15T00:17:09.009Z,99131.63
2022-09-15T00:18:10.638Z,99135.97
2022-09-15T00:19:12.118Z,99138.47
2022-09-15T00:20:13.565Z,99131.13
2022-09-15T00:21:16.725Z,99134.81
2022-09-15T00:22:19.872Z,99135.16
2022-09-15T00:23:21.350Z,99130.22
2022-09-15T00:24:22.808Z,99132.59
2022-09-15T00:25:24.354Z,99127.75
2022-09-15T00:26:26.552Z,99133.06
2022-09-15T00:27:28.590Z,99130.97
2022-09-15T00:28:31.490Z,99134.16
2022-09-15T00:29:33.018Z,99135.72
2022-09-15T00:30:34.521Z,99129.69
2022-09-15T00:31:36.049Z,99127.66
2022-09-15T00:32:37.515Z,99133.72
2022-09-15T00:33:39.028Z,99131.25
2022-09-15T00:34:40.476Z,99139.75
2022-09-15T00:35:49.422Z,99134.06
2022-09-15T00:36:50.858Z,99134.06
2022-09-15T00:37:52.342Z,99138.56
2022-09-15T00:38:53.822Z,99137.81
2022-09-15T00:39:55.316Z,99128.56
2022-09-15T00:40:57.229Z,99130.69
2022-09-15T00:41:58.719Z,99131.13
2022-09-15T00:43:00.214Z,99130.41
2022-09-15T00:44:02.783Z,99135.72
2022-09-15T00:45:04.418Z,99129.69
2022-09-15T00:46:06.007Z,99130.16
2022-09-15T00:47:19.083Z,99120.09
2022-09-15T00:48:21.554Z,99134.72
2022-09-15T00:49:30.080Z,99130.38
2022-09-15T00:50:31.731Z,99124.69
2022-09-15T00:51:38.698Z,99133.28
2022-09-15T00:52:59.154Z,99126.78
2022-09-15T00:54:00.805Z,99118.72
2022-09-15T00:55:10.224Z,99128.50
2022-09-15T00:56:12.231Z,99129.34
2022-09-15T00:57:16.953Z,99123.28
2022-09-15T00:58:18.370Z,99118.81
2022-09-15T00:59:21.054Z,99124.13
2022-09-15T01:00:23.134Z,99127.81
2022-09-15T01:01:25.411Z,99133.81
2022-09-15T01:02:33.031Z,99125.41
2022-09-15T01:03:34.653Z,99116.09
2022-09-15T01:04:36.158Z,99113.25
2022-09-15T01:05:39.482Z,99117.28
2022-09-15T01:06:42.771Z,99116.47
2022-09-15T01:07:49.298Z,99111.13
2022-09-15T01:09:09.323Z,99121.28
2022-09-15T01:10:27.258Z,99119.63
2022-09-15T01:11:28.724Z,99118.81
2022-09-15T01:12:30.168Z,99118.72
2022-09-15T01:13:31.673Z,99120.38
2022-09-15T01:14:33.174Z,99119.47
2022-09-15T01:15:54.887Z,99121.84
2022-09-15T01:16:58.714Z,99114.53
2022-09-15T01:18:05.699Z,99112.41
2022-09-15T01:19:25.758Z,99117.97
2022-09-15T01:20:30.297Z,99118.34
2022-09-15T01:21:40.862Z,99111.97
2022-09-15T01:22:42.372Z,99114.44
2022-09-15T01:23:58.618Z,99116.44
2022-09-15T01:25:19.075Z,99114.88
2022-09-15T01:26:29.804Z,99111.59
2022-09-15T01:27:42.817Z,99111.97
2022-09-15T01:28:50.533Z,99109.47
2022-09-15T01:30:07.137Z,99109.63
2022-09-15T01:31:12.674Z,99110.00
2022-09-15T01:32:51.607Z,99106.81
2022-09-15T01:34:01.538Z,99104.44
2022-09-15T01:35:11.360Z,99103.97
2022-09-15T01:36:20.115Z,99106.91
2022-09-15T01:37:22.831Z,99111.03
2022-09-15T01:38:36.986Z,99102.16
2022-09-15T01:39:39.782Z,99112.31
2022-09-15T01:40:50.298Z,99104.16
2022-09-15T01:42:01.186Z,99106.28
2022-09-15T01:43:02.703Z,99106.75
2022-09-15T01:44:08.723Z,99104.00
2022-09-15T01:45:12.065Z,99105.75
2022-09-15T01:46:13.689Z,99098.88
2022-09-15T01:47:16.002Z,99109.03
2022-09-15T01:48:18.383Z,99092.31
2022-09-15T01:49:23.734Z,99105.13
2022-09-15T01:50:36.603Z,99106.38
2022-09-15T01:51:38.103Z,99098.25
2022-09-15T01:52:43.324Z,99098.13
2022-09-15T01:53:45.090Z,99106.28
2022-09-15T01:54:49.156Z,99102.28
2022-09-15T01:55:57.803Z,99101.91
2022-09-15T01:56:59.242Z,99100.34
2022-09-15T01:58:00.712Z,99090.63
2022-09-15T01:59:02.185Z,99097.13
2022-09-15T02:00:03.979Z,99099.59
2022-09-15T02:01:08.670Z,99097.22
2022-09-15T02:02:33.125Z,99096.00
2022-09-15T02:03:51.596Z,99099.31
2022-09-15T02:04:54.265Z,99092.47
2022-09-15T02:06:02.672Z,99090.44
2022-09-15T02:07:07.387Z,99100.59
2022-09-15T02:08:08.887Z,99088.06
2022-09-15T02:09:14.200Z,99089.69
2022-09-15T02:10:26.412Z,99093.34
2022-09-15T02:11:30.302Z,99095.81
2022-09-15T02:12:34.852Z,99086.13
2022-09-15T02:13:41.066Z,99098.28
2022-09-15T02:14:48.093Z,99099.09
2022-09-15T02:15:51.638Z,99090.59
2022-09-15T02:16:53.470Z,99097.91
2022-09-15T02:17:55.480Z,99092.25
2022-09-15T02:19:02.838Z,99095.06
2022-09-15T02:20:15.516Z,99096.72
2022-09-15T02:21:18.894Z,99094.25
2022-09-15T02:22:27.906Z,99093.88
2022-09-15T02:23:35.237Z,99094.25
2022-09-15T02:24:38.006Z,99085.75
2022-09-15T02:25:47.151Z,99086.94
2022-09-15T02:26:48.607Z,99090.22
2022-09-15T02:27:50.861Z,99092.25
2022-09-15T02:28:52.802Z,99096.72
2022-09-15T02:29:55.110Z,99092.69
2022-09-15T02:30:57.190Z,99087.00
2022-09-15T02:32:03.780Z,99091.03
2022-09-15T02:33:08.612Z,99092.69
2022-09-15T02:34:11.431Z,99087.50
2022-09-15T02:35:13.288Z,99084.66
2022-09-15T02:36:15.787Z,99087.50
2022-09-15T02:37:18.404Z,99091.97
2022-09-15T02:38:20.078Z,99084.66
2022-09-15T02:39:22.168Z,99089.13
2022-09-15T02:40:23.722Z,99086.28
2022-09-15T02:41:25.211Z,99091.16
2022-09-15T02:42:27.491Z,99093.63
2022-09-15T02:43:29.666Z,99094.44
2022-09-15T02:44:31.127Z,99085.09
2022-09-15T02:45:32.774Z,99088.75
2022-09-15T02:46:34.282Z,99094.00
2022-09-15T02:47:35.762Z,99089.97
2022-09-15T02:48:37.221Z,99109.00
2022-09-15T02:49:38.740Z,99098.09
2022-09-15T02:50:41.200Z,99096.09
2022-09-15T02:51:42.664Z,99096.09
2022-09-15T02:52:44.136Z,99102.22
2022-09-15T02:53:46.380Z,99104.22
2022-09-15T02:54:48.132Z,99100.19
2022-09-15T02:55:49.626Z,99103.84
2022-09-15T02:56:51.055Z,99105.88
2022-09-15T02:57:52.546Z,99107.50
2022-09-15T02:58:53.972Z,99108.31
2022-09-15T03:00:13.930Z,99102.66
2022-09-15T03:01:15.869Z,99111.16
2022-09-15T03:02:20.535Z,99112.00
2022-09-15T03:03:22.194Z,99114.00
2022-09-15T03:04:23.709Z,99120.50
2022-09-15T03:05:28.582Z,99115.66
2022-09-15T03:06:34.424Z,99122.16
2022-09-15T03:07:37.196Z,99119.31
2022-09-15T03:08:38.859Z,99122.16
2022-09-15T03:09:40.296Z,99129.47
2022-09-15T03:10:41.764Z,99129.47
2022-09-15T03:11:43.526Z,99128.28
2022-09-15T03:12:46.336Z,99127.09
2022-09-15T03:13:47.894Z,99124.28
2022-09-15T03:14:50.398Z,99132.78
2022-09-15T03:15:51.907Z,99131.94
2022-09-15T03:16:53.679Z,99137.59
2022-09-15T03:17:55.180Z,99131.13
2022-09-15T03:18:56.890Z,99134.31
2022-09-15T03:19:58.320Z,99133.50
2022-09-15T03:20:59.893Z,99134.69
2022-09-15T03:22:01.341Z,99137.53
2022-09-15T03:23:03.390Z,99133.06
2022-09-15T03:24:04.903Z,99135.06
2022-09-15T03:25:07.317Z,99134.25
2022-09-15T03:26:09.435Z,99133.44
2022-09-15T03:27:10.935Z,99144.78
2022-09-15T03:28:12.387Z,99139.03
2022-09-15T03:29:13.914Z,99141.41
2022-09-15T03:30:15.387Z,99144.25
2022-09-15T03:31:16.889Z,99136.91
2022-09-15T03:32:18.406Z,99139.75
2022-09-15T03:33:20.079Z,99143.78
2022-09-15T03:34:21.525Z,99140.09
2022-09-15T03:35:22.992Z,99145.78
2022-09-15T03:36:24.476Z,99140.47
2022-09-15T03:37:26.106Z,99149.00
2022-09-15T03:38:27.540Z,99151.38
2022-09-15T03:39:28.987Z,99151.38
2022-09-15T03:40:30.792Z,99152.56
2022-09-15T03:41:32.291Z,99153.41
2022-09-15T03:42:33.747Z,99152.56
2022-09-15T03:43:35.435Z,99163.09
2022-09-15T03:44:37.406Z,99156.59
2022-09-15T03:45:38.969Z,99151.31
2022-09-15T03:46:40.502Z,99154.13
2022-09-15T03:47:41.941Z,99159.00
2022-09-15T03:48:43.456Z,99149.09
2022-09-15T03:49:44.880Z,99149.22
2022-09-15T03:50:46.330Z,99148.38
2022-09-15T03:51:47.920Z,99154.78
2022-09-15T03:52:49.567Z,99157.97
2022-09-15T03:53:51.127Z,99153.50
2022-09-15T03:54:52.660Z,99153.88
2022-09-15T03:55:54.107Z,99165.22
2022-09-15T03:56:55.619Z,99162.75
2022-09-15T03:57:57.101Z,99156.25
2022-09-15T03:59:03.872Z,99165.13
2022-09-15T04:00:07.328Z,99155.31
2022-09-15T04:01:09.278Z,99165.03
2022-09-15T04:02:11.187Z,99171.88
2022-09-15T04:03:12.743Z,99177.09
2022-09-15T04:04:14.329Z,99169.78
2022-09-15T04:05:15.951Z,99176.66
2022-09-15T04:06:17.815Z,99173.38
2022-09-15T04:07:19.248Z,99172.53
2022-09-15T04:08:20.703Z,99175.75
2022-09-15T04:09:22.224Z,99178.59
2022-09-15T04:10:24.622Z,99169.13
2022-09-15T04:11:26.140Z,99173.88
2022-09-15T04:12:27.588Z,99177.06
2022-09-15T04:13:29.079Z,99181.91
2022-09-15T04:14:30.795Z,99176.63
2022-09-15T04:15:32.255Z,99179.81
2022-09-15T04:16:34.017Z,99175.34
2022-09-15T04:17:35.518Z,99173.22
2022-09-15T04:18:37.053Z,99182.09
2022-09-15T04:19:38.623Z,99182.44
2022-09-15T04:20:40.132Z,99187.66
2022-09-15T04:21:41.605Z,99183.56
2022-09-15T04:22:43.638Z,99202.22
2022-09-15T04:23:45.240Z,99193.25
2022-09-15T04:24:49.653Z,99190.78
2022-09-15T04:25:57.990Z,99193.13
2022-09-15T04:26:59.653Z,99200.34
2022-09-15T04:28:01.216Z,99190.56
2022-09-15T04:29:04.529Z,99192.94
2022-09-15T04:30:06.991Z,99185.63
2022-09-15T04:31:09.662Z,99186.81
2022-09-15T04:32:11.187Z,99189.16
2022-09-15T04:33:12.651Z,99192.00
2022-09-15T04:34:14.172Z,99189.06
2022-09-15T04:35:15.955Z,99190.25
2022-09-15T04:36:18.232Z,99193.47
2022-09-15T04:37:19.699Z,99196.28
2022-09-15T04:38:21.148Z,99201.50
2022-09-15T04:39:22.911Z,99203.88
2022-09-15T04:40:24.383Z,99203.06
2022-09-15T04:41:26.028Z,99206.25
2022-09-15T04:42:27.668Z,99194.91
2022-09-15T04:43:29.106Z,99204.56
2022-09-15T04:44:30.601Z,99197.25
2022-09-15T04:45:33.387Z,99199.63
2022-09-15T04:46:34.958Z,99203.66
2022-09-15T04:47:36.540Z,99200.81
2022-09-15T04:48:41.188Z,99206.50
2022-09-15T04:49:43.251Z,99207.22
2022-09-15T04:50:44.743Z,99202.38
2022-09-15T04:51:46.178Z,99205.56
2022-09-15T04:52:48.142Z,99201.91
2022-09-15T04:53:49.995Z,99203.47
2022-09-15T04:54:51.711Z,99203.47
2022-09-15T04:55:53.210Z,99200.63
2022-09-15T04:56:54.647Z,99205.81
2022-09-15T04:57:56.098Z,99205.00
2022-09-15T04:59:03.614Z,99204.16
2022-09-15T05:00:07.237Z,99208.19
2022-09-15T05:01:13.291Z,99218.69
2022-09-15T05:02:14.920Z,99217.06
2022-09-15T05:03:16.386Z,99215.41
2022-09-15T05:04:17.851Z,99210.91
2022-09-15T05:05:19.526Z,99213.75
2022-09-15T05:06:22.311Z,99214.13
2022-09-15T05:07:23.782Z,99214.13
2022-09-15T05:08:25.228Z,99215.31
2022-09-15T05:09:29.449Z,99222.16
2022-09-15T05:10:31.033Z,99221.69
2022-09-15T05:11:32.909Z,99227.69
2022-09-15T05:12:34.374Z,99237.38
2022-09-15T05:13:35.871Z,99237.75
2022-09-15T05:14:37.334Z,99240.09
2022-09-15T05:15:39.795Z,99244.13
2022-09-15T05:16:41.367Z,99233.25
2022-09-15T05:17:44.962Z,99246.81
2022-09-15T05:18:46.947Z,99243.16
2022-09-15T05:19:48.387Z,99244.34
2022-09-15T05:20:49.859Z,99234.19
2022-09-15T05:21:51.341Z,99247.88
2022-09-15T05:22:52.777Z,99238.91
2022-09-15T05:23:54.294Z,99245.75
2022-09-15T05:24:55.719Z,99242.47
2022-09-15T05:26:01.018Z,99250.50
2022-09-15T05:27:02.558Z,99246.38
2022-09-15T05:28:04.046Z,99246.72
2022-09-15T05:29:05.567Z,99246.72
2022-09-15T05:30:34.786Z,99249.09
2022-09-15T05:31:31.018Z,99253.09
2022-09-15T05:32:32.799Z,99257.13
2022-09-15T05:33:34.287Z,99268.44
2022-09-15T05:34:35.766Z,99263.13
2022-09-15T05:35:37.303Z,99263.13
2022-09-15T05:36:38.834Z,99265.97
2022-09-15T05:37:40.332Z,99262.31
2022-09-15T05:38:41.945Z,99270.34
2022-09-15T05:39:43.437Z,99271.53
2022-09-15T05:40:45.029Z,99269.88
2022-09-15T05:41:46.483Z,99275.53
2022-09-15T05:42:47.984Z,99269.88
2022-09-15T05:43:49.590Z,99273.75
2022-09-15T05:44:51.059Z,99272.94
2022-09-15T05:45:55.352Z,99276.94
2022-09-15T05:46:56.842Z,99276.94
2022-09-15T05:47:58.370Z,99284.59
2022-09-15T05:48:59.838Z,99273.41
2022-09-15T05:50:01.277Z,99290.63
2022-09-15T05:51:02.870Z,99292.63
2022-09-15T05:52:04.381Z,99297.47
2022-09-15T05:53:06.099Z,99305.50
2022-09-15T05:54:07.647Z,99308.31
2022-09-15T05:55:10.042Z,99299.84
2022-09-15T05:56:12.559Z,99306.69
2022-09-15T05:57:14.287Z,99306.69
2022-09-15T05:58:15.715Z,99309.50
2022-09-15T05:59:17.242Z,99305.03
2022-09-15T06:00:19.029Z,99309.88
2022-09-15T06:01:21.322Z,99301.69
2022-09-15T06:02:22.924Z,99311.88
2022-09-15T06:03:28.675Z,99309.03
2022-09-15T06:04:31.589Z,99305.34
2022-09-15T06:05:33.014Z,99300.88
2022-09-15T06:06:34.591Z,99300.06
2022-09-15T06:07:36.362Z,99305.72
2022-09-15T06:08:42.574Z,99305.72
2022-09-15T06:09:49.895Z,99309.72
2022-09-15T06:10:51.339Z,99294.75
2022-09-15T06:11:53.426Z,99306.06
2022-09-15T06:12:54.968Z,99305.25
2022-09-15T06:13:58.999Z,99302.41
2022-09-15T06:15:00.471Z,99302.41
2022-09-15T06:16:02.599Z,99304.06
2022-09-15T06:17:04.137Z,99307.25
2022-09-15T06:18:05.598Z,99304.06
2022-09-15T06:19:07.216Z,99305.59
2022-09-15T06:20:09.265Z,99307.25
2022-09-15T06:21:11.706Z,99308.06
2022-09-15T06:22:13.518Z,99302.78
2022-09-15T06:23:14.986Z,99306.44
2022-09-15T06:24:16.505Z,99306.44
2022-09-15T06:25:17.974Z,99304.78
2022-09-15T06:26:19.664Z,99301.94
2022-09-15T06:27:21.119Z,99313.25
2022-09-15T06:28:23.556Z,99312.44
2022-09-15T06:29:25.238Z,99310.44
2022-09-15T06:30:26.760Z,99320.09
2022-09-15T06:31:28.725Z,99316.44
2022-09-15T06:32:30.375Z,99322.09
2022-09-15T06:33:31.887Z,99318.47
2022-09-15T06:34:33.392Z,99321.66
2022-09-15T06:35:34.847Z,99329.78
2022-09-15T06:36:36.410Z,99323.28
2022-09-15T06:37:37.949Z,99328.13
2022-09-15T06:38:39.674Z,99331.31
2022-09-15T06:39:41.189Z,99332.13
2022-09-15T06:40:42.831Z,99331.31
2022-09-15T06:42:01.640Z,99336.16
2022-09-15T06:43:04.018Z,99336.16
2022-09-15T06:44:05.803Z,99338.97
2022-09-15T06:45:07.477Z,99336.16
2022-09-15T06:46:09.218Z,99336.16
2022-09-15T06:47:10.776Z,99336.97
2022-09-15T06:48:24.059Z,99346.28
2022-09-15T06:49:26.570Z,99336.97
2022-09-15T06:50:28.250Z,99336.97
2022-09-15T06:51:35.264Z,99342.63
2022-09-15T06:52:36.880Z,99348.28
2022-09-15T06:53:38.566Z,99353.97
2022-09-15T06:54:40.056Z,99358.78
2022-09-15T06:55:41.595Z,99366.09
2022-09-15T06:56:43.095Z,99361.25
2022-09-15T06:57:44.578Z,99357.97
2022-09-15T06:58:46.175Z,99364.44
2022-09-15T06:59:47.712Z,99362.09
2022-09-15T07:00:49.251Z,99368.56
2022-09-15T07:01:54.614Z,99373.41
2022-09-15T07:02:56.318Z,99364.91
2022-09-15T07:03:58.475Z,99374.25
2022-09-15T07:04:59.957Z,99367.75
2022-09-15T07:06:01.531Z,99375.06
2022-09-15T07:07:03.033Z,99374.25
2022-09-15T07:08:04.473Z,99375.88
2022-09-15T07:09:06.005Z,99377.06
2022-09-15T07:10:07.668Z,99377.88
2022-09-15T07:11:09.299Z,99380.72
2022-09-15T07:12:10.735Z,99385.19
2022-09-15T07:13:12.370Z,99383.56
2022-09-15T07:14:13.812Z,99371.06
2022-09-15T07:15:15.374Z,99382.38
2022-09-15T07:16:18.147Z,99380.72
2022-09-15T07:17:19.654Z,99375.88
2022-09-15T07:18:21.713Z,99382.38
2022-09-15T07:19:23.385Z,99386.03
2022-09-15T07:20:25.931Z,99390.03
2022-09-15T07:21:27.404Z,99386.84
2022-09-15T07:22:28.896Z,99390.88
2022-09-15T07:23:30.441Z,99391.69
2022-09-15T07:24:32.018Z,99379.53
2022-09-15T07:25:33.727Z,99388.84
2022-09-15T07:26:35.260Z,99384.84
2022-09-15T07:27:36.706Z,99388.50
2022-09-15T07:28:38.237Z,99380.00
2022-09-15T07:29:39.732Z,99390.50
2022-09-15T07:30:41.524Z,99395.81
2022-09-15T07:31:42.993Z,99392.97
2022-09-15T07:32:44.702Z,99382.50
2022-09-15T07:33:46.338Z,99387.78
2022-09-15T07:34:47.900Z,99393.09
2022-09-15T07:35:49.430Z,99392.28
2022-09-15T07:36:50.884Z,99400.44
2022-09-15T07:37:52.430Z,99388.28
2022-09-15T07:38:56.214Z,99391.59
2022-09-15T07:39:57.718Z,99394.06
2022-09-15T07:41:08.136Z,99388.41
2022-09-15T07:42:09.633Z,99396.91
2022-09-15T07:43:11.144Z,99406.22
2022-09-15T07:44:13.265Z,99400.56
2022-09-15T07:45:15.225Z,99405.03
2022-09-15T07:46:16.783Z,99403.84
2022-09-15T07:47:18.290Z,99409.53
2022-09-15T07:48:22.200Z,99411.19
2022-09-15T07:49:27.334Z,99407.16
2022-09-15T07:50:28.839Z,99406.81
2022-09-15T07:51:30.295Z,99413.28
2022-09-15T07:52:31.772Z,99408.47
2022-09-15T07:53:33.308Z,99412.13
2022-09-15T07:54:34.832Z,99408.09
2022-09-15T07:55:36.338Z,99413.75
2022-09-15T07:56:39.963Z,99409.78
2022-09-15T07:57:41.492Z,99409.78
2022-09-15T07:58:42.943Z,99405.78
2022-09-15T07:59:44.421Z,99399.75
2022-09-15T08:00:47.424Z,99403.41
2022-09-15T08:01:49.324Z,99402.22
2022-09-15T08:02:50.793Z,99404.69
2022-09-15T08:03:52.671Z,99401.03
2022-09-15T08:04:54.270Z,99409.19
2022-09-15T08:05:59.291Z,99404.34
2022-09-15T08:07:00.792Z,99405.19
2022-09-15T08:08:02.360Z,99414.50
2022-09-15T08:09:04.133Z,99414.97
2022-09-15T08:10:06.065Z,99412.97
2022-09-15T08:11:16.372Z,99419.94
2022-09-15T08:12:19.857Z,99431.28
2022-09-15T08:13:21.465Z,99427.25
2022-09-15T08:14:22.979Z,99426.91
2022-09-15T08:15:24.496Z,99428.19
2022-09-15T08:16:26.214Z,99429.84
2022-09-15T08:17:27.760Z,99432.31
2022-09-15T08:18:29.223Z,99431.13
2022-09-15T08:19:31.564Z,99425.13
2022-09-15T08:20:40.088Z,99442.13
2022-09-15T08:21:42.662Z,99434.13
2022-09-15T08:22:45.574Z,99443.44
2022-09-15T08:23:50.464Z,99441.44
2022-09-15T08:24:52.026Z,99436.59
2022-09-15T08:25:53.655Z,99441.94
2022-09-15T08:26:55.174Z,99448.44
2022-09-15T08:27:56.789Z,99439.94
2022-09-15T08:28:58.294Z,99446.41
2022-09-15T08:30:00.139Z,99443.22
2022-09-15T08:31:05.398Z,99451.38
2022-09-15T08:32:07.327Z,99446.88
2022-09-15T08:33:08.786Z,99447.34
2022-09-15T08:34:13.562Z,99449.00
2022-09-15T08:35:16.014Z,99444.16
2022-09-15T08:36:17.491Z,99456.31
2022-09-15T08:37:18.968Z,99451.47
2022-09-15T08:38:20.411Z,99445.50
2022-09-15T08:39:21.929Z,99445.13
2022-09-15T08:40:37.175Z,99445.97
2022-09-15T08:41:40.833Z,99447.59
2022-09-15T08:42:44.946Z,99443.25
2022-09-15T08:43:48.332Z,99444.06
2022-09-15T08:44:49.791Z,99447.38
2022-09-15T08:45:59.250Z,99453.50
2022-09-15T08:47:04.090Z,99450.31
2022-09-15T08:48:05.532Z,99449.97
2022-09-15T08:49:10.599Z,99457.28
2022-09-15T08:50:20.853Z,99464.97
2022-09-15T08:51:27.782Z,99461.78
2022-09-15T08:52:33.628Z,99461.78
2022-09-15T08:53:36.050Z,99465.09
2022-09-15T08:54:37.731Z,99460.59
2022-09-15T08:55:39.745Z,99461.88
2022-09-15T08:56:41.618Z,99461.88
2022-09-15T08:57:43.140Z,99464.38
2022-09-15T08:58:44.962Z,99457.88
2022-09-15T08:59:46.659Z,99460.25
2022-09-15T09:00:48.946Z,99456.59
2022-09-15T09:01:56.235Z,99473.22
2022-09-15T09:03:01.011Z,99474.06
2022-09-15T09:04:08.708Z,99474.88
2022-09-15T09:05:16.211Z,99464.38
2022-09-15T09:06:27.401Z,99468.84
2022-09-15T09:07:34.630Z,99472.50
2022-09-15T09:08:42.214Z,99472.50
2022-09-15T09:09:52.840Z,99483.03
2022-09-15T09:10:55.663Z,99485.84
2022-09-15T09:12:16.170Z,99479.38
2022-09-15T09:13:23.135Z,99473.69
2022-09-15T09:14:33.854Z,99477.34
2022-09-15T09:15:38.387Z,99479.00
2022-09-15T09:16:58.711Z,99469.69
2022-09-15T09:18:05.457Z,99472.16
2022-09-15T09:19:13.063Z,99469.31
2022-09-15T09:20:14.484Z,99470.97
2022-09-15T09:21:30.015Z,99470.97
2022-09-15T09:22:32.924Z,99471.47
2022-09-15T09:23:37.804Z,99473.13
2022-09-15T09:24:45.706Z,99470.28
2022-09-15T09:25:47.268Z,99475.94
2022-09-15T09:26:49.567Z,99471.09
2022-09-15T09:27:50.995Z,99469.09
2022-09-15T09:28:52.519Z,99472.41
2022-09-15T09:29:54.635Z,99476.06
2022-09-15T09:30:57.313Z,99475.69
2022-09-15T09:32:01.068Z,99474.53
2022-09-15T09:33:11.295Z,99487.50
2022-09-15T09:34:52.756Z,99482.31
2022-09-15T09:35:54.280Z,99477.13
2022-09-15T09:36:58.746Z,99477.97
2022-09-15T09:38:02.369Z,99480.44
2022-09-15T09:39:04.264Z,99487.75
2022-09-15T09:40:06.081Z,99484.91
2022-09-15T09:41:17.403Z,99487.41
2022-09-15T09:42:18.915Z,99486.31
2022-09-15T09:43:20.482Z,99481.13
2022-09-15T09:44:31.649Z,99491.75
2022-09-15T09:45:33.281Z,99488.56
2022-09-15T09:46:35.377Z,99495.91
2022-09-15T09:47:36.963Z,99495.53
2022-09-15T09:48:38.447Z,99488.69
2022-09-15T09:49:42.395Z,99499.66
2022-09-15T09:50:44.151Z,99494.81
2022-09-15T09:51:52.303Z,99491.63
2022-09-15T09:52:53.835Z,99485.59
2022-09-15T09:53:55.259Z,99489.28
2022-09-15T09:55:00.323Z,99488.91
2022-09-15T09:56:18.412Z,99490.56
2022-09-15T09:57:27.116Z,99501.56
2022-09-15T09:58:28.614Z,99496.72
2022-09-15T09:59:36.832Z,99497.16
2022-09-15T10:00:41.326Z,99496.00
2022-09-15T10:01:42.910Z,99501.31
2022-09-15T10:02:47.355Z,99502.97
2022-09-15T10:03:48.842Z,99496.94
2022-09-15T10:04:54.393Z,99492.09
2022-09-15T10:06:03.440Z,99502.03
2022-09-15T10:07:04.971Z,99496.91
2022-09-15T10:08:06.453Z,99498.81
2022-09-15T10:09:09.048Z,99496.44
2022-09-15T10:10:18.556Z,99500.31
2022-09-15T10:11:20.022Z,99496.41
2022-09-15T10:12:41.757Z,99494.16
2022-09-15T10:13:50.156Z,99500.13
2022-09-15T10:14:52.701Z,99498.31
2022-09-15T10:15:55.629Z,99497.34
2022-09-15T10:17:01.214Z,99496.75
2022-09-15T10:18:03.202Z,99494.59
2022-09-15T10:19:04.695Z,99498.78
2022-09-15T10:20:07.453Z,99499.75
2022-09-15T10:21:09.188Z,99497.44
2022-09-15T10:22:14.792Z,99498.84
2022-09-15T10:23:18.787Z,99497.75
2022-09-15T10:24:24.099Z,99499.59
2022-09-15T10:25:44.146Z,99500.72
2022-09-15T10:26:50.909Z,99504.38
2022-09-15T10:28:11.135Z,99498.19
2022-09-15T10:29:13.991Z,99496.06
2022-09-15T10:30:15.438Z,99495.13
2022-09-15T10:31:35.759Z,99496.94
2022-09-15T10:32:37.291Z,99493.44
2022-09-15T10:33:39.467Z,99503.06
2022-09-15T10:34:40.941Z,99494.66
2022-09-15T10:35:42.576Z,99498.25
2022-09-15T10:36:44.087Z,99495.25
2022-09-15T10:37:45.795Z,99492.94
2022-09-15T10:39:10.641Z,99497.97
2022-09-15T10:40:21.280Z,99500.59
2022-09-15T10:41:23.061Z,99504.03
2022-09-15T10:42:39.899Z,99502.97
2022-09-15T10:43:41.330Z,99502.31
2022-09-15T10:44:50.152Z,99497.13
2022-09-15T10:45:55.944Z,99502.63
2022-09-15T10:47:06.573Z,99495.09
2022-09-15T10:48:17.000Z,99503.84
2022-09-15T10:49:21.431Z,99497.00
2022-09-15T10:50:30.560Z,99495.03
2022-09-15T10:51:38.164Z,99496.50
2022-09-15T10:52:51.634Z,99499.59
2022-09-15T10:54:02.588Z,99495.38
2022-09-15T10:55:13.302Z,99494.03
2022-09-15T10:56:23.926Z,99492.53
2022-09-15T10:57:51.531Z,99485.28
2022-09-15T10:59:11.738Z,99494.50
2022-09-15T11:00:20.970Z,99495.94
2022-09-15T11:01:28.478Z,99495.28
2022-09-15T11:02:32.984Z,99490.53
2022-09-15T11:03:38.713Z,99483.78
2022-09-15T11:04:42.726Z,99489.59
2022-09-15T11:05:56.540Z,99488.06
2022-09-15T11:07:09.796Z,99485.25
2022-09-15T11:08:17.431Z,99484.19
2022-09-15T11:09:18.904Z,99481.78
2022-09-15T11:10:22.572Z,99485.56
2022-09-15T11:11:26.959Z,99482.81
2022-09-15T11:12:43.763Z,99483.69
2022-09-15T11:13:59.943Z,99478.81
2022-09-15T11:15:11.322Z,99486.94
2022-09-15T11:16:24.561Z,99480.44
2022-09-15T11:17:33.835Z,99478.78
2022-09-15T11:18:54.686Z,99482.44
2022-09-15T11:20:28.216Z,99474.69
2022-09-15T11:21:29.650Z,99476.34
2022-09-15T11:22:31.104Z,99484.50
2022-09-15T11:23:55.803Z,99484.94
2022-09-15T11:24:58.494Z,99480.50
2022-09-15T11:26:04.599Z,99479.22
2022-09-15T11:27:12.538Z,99478.78
2022-09-15T11:28:20.034Z,99471.84
2022-09-15T11:29:21.651Z,99478.00
2022-09-15T11:30:23.051Z,99479.63
2022-09-15T11:31:29.693Z,99474.78
2022-09-15T11:32:36.555Z,99477.22
2022-09-15T11:33:40.225Z,99474.38
2022-09-15T11:34:47.150Z,99472.34
2022-09-15T11:35:50.447Z,99476.44
2022-09-15T11:36:53.489Z,99474.81
2022-09-15T11:37:56.759Z,99477.28
2022-09-15T11:39:04.458Z,99476.47
2022-09-15T11:40:11.879Z,99479.78
2022-09-15T11:41:25.617Z,99469.19
2022-09-15T11:42:30.723Z,99482.34
2022-09-15T11:43:37.542Z,99470.50
2022-09-15T11:44:42.980Z,99472.59
2022-09-15T11:45:45.543Z,99468.53
2022-09-15T11:47:02.144Z,99470.97
2022-09-15T11:48:26.680Z,99470.97
2022-09-15T11:49:39.297Z,99470.97
2022-09-15T11:50:41.622Z,99471.81
2022-09-15T11:51:44.450Z,99475.88
2022-09-15T11:52:58.879Z,99470.16
2022-09-15T11:54:12.104Z,99475.88
2022-09-15T11:55:15.741Z,99475.44
2022-09-15T11:56:27.813Z,99478.25
2022-09-15T11:57:35.450Z,99485.53
2022-09-15T11:58:48.854Z,99486.28
2022-09-15T11:59:59.473Z,99485.44
2022-09-15T12:01:08.950Z,99496.38
2022-09-15T12:02:10.436Z,99499.19
2022-09-15T12:03:17.823Z,99497.47
2022-09-15T12:04:24.366Z,99497.41
2022-09-15T12:05:36.287Z,99490.78
2022-09-15T12:06:44.768Z,99498.00
2022-09-15T12:07:50.065Z,99496.69
2022-09-15T12:08:57.142Z,99497.03
2022-09-15T12:10:04.276Z,99494.91
2022-09-15T12:11:10.716Z,99500.13
2022-09-15T12:12:13.404Z,99503.75
2022-09-15T12:13:18.347Z,99501.66
2022-09-15T12:14:22.612Z,99498.34
2022-09-15T12:15:27.431Z,99499.97
2022-09-15T12:16:29.167Z,99508.09
2022-09-15T12:17:41.110Z,99499.09
2022-09-15T12:18:46.804Z,99504.00
2022-09-15T12:20:01.978Z,99498.66
2022-09-15T12:21:06.403Z,99496.63
2022-09-15T12:22:13.633Z,99499.88
2022-09-15T12:23:15.072Z,99503.94
2022-09-15T12:24:25.178Z,99496.63
2022-09-15T12:25:28.966Z,99502.78
2022-09-15T12:26:30.819Z,99502.81
2022-09-15T12:27:32.338Z,99497.53
2022-09-15T12:28:40.407Z,99501.22
2022-09-15T12:29:47.513Z,99497.22
2022-09-15T12:30:49.358Z,99493.56
2022-09-15T12:32:10.775Z,99505.81
2022-09-15T12:33:44.255Z,99507.06
2022-09-15T12:35:01.249Z,99504.28
2022-09-15T12:36:25.640Z,99489.59